createdAt,value
2022-10-10T00:00:53.312Z,0.80
2022-10-10T00:03:21.525Z,1.00
2022-10-10T00:05:49.510Z,0.93
2022-10-10T00:08:17.411Z,1.00
2022-10-10T00:10:45.410Z,1.00
2022-10-10T00:13:13.381Z,0.95
2022-10-10T00:15:42.912Z,0.82
2022-10-10T00:18:15.303Z,1.25
2022-10-10T00:20:43.505Z,0.85
2022-10-10T00:23:11.457Z,1.17
2022-10-10T00:25:39.390Z,0.93
2022-10-10T00:28:07.398Z,1.08
2022-10-10T00:30:35.430Z,0.77
2022-10-10T00:33:03.321Z,1.27
2022-10-10T00:35:32.767Z,1.33
2022-10-10T00:38:00.812Z,1.05
2022-10-10T00:40:29.086Z,1.10
2022-10-10T00:42:57.122Z,0.80
2022-10-10T00:45:32.157Z,1.10
2022-10-10T00:48:04.287Z,1.08
2022-10-10T00:50:38.769Z,0.95
2022-10-10T00:53:09.883Z,1.00
2022-10-10T00:55:39.172Z,0.98
2022-10-10T00:58:09.986Z,0.70
2022-10-10T01:00:38.313Z,1.00
2022-10-10T01:03:06.731Z,0.80
2022-10-10T01:05:36.716Z,1.05
2022-10-10T01:08:07.518Z,1.30
2022-10-10T01:10:41.724Z,1.17
2022-10-10T01:13:21.326Z,0.90
2022-10-10T01:15:58.425Z,1.10
2022-10-10T01:18:34.774Z,0.85
2022-10-10T01:21:21.625Z,1.40
2022-10-10T01:24:22.755Z,1.10
2022-10-10T01:27:11.373Z,1.20
2022-10-10T01:29:44.648Z,1.05
2022-10-10T01:32:17.227Z,1.10
2022-10-10T01:34:56.696Z,0.70
2022-10-10T01:37:35.155Z,1.10
2022-10-10T01:40:10.327Z,0.75
2022-10-10T01:42:43.183Z,1.10
2022-10-10T01:45:12.989Z,1.15
2022-10-10T01:50:12.544Z,0.80
2022-10-10T01:52:50.605Z,0.90
2022-10-10T01:55:32.906Z,1.10
2022-10-10T01:58:11.246Z,0.70
2022-10-10T02:00:50.405Z,1.60
2022-10-10T02:03:22.029Z,0.90
2022-10-10T02:05:55.568Z,1.13
2022-10-10T02:08:28.558Z,0.98
2022-10-10T02:11:00.862Z,1.33
2022-10-10T02:13:35.555Z,1.20
2022-10-10T02:16:09.460Z,1.52
2022-10-10T02:18:39.242Z,0.98
2022-10-10T02:21:09.917Z,1.20
2022-10-10T02:23:38.116Z,0.75
2022-10-10T02:26:06.251Z,0.93
2022-10-10T02:28:39.713Z,1.08
2022-10-10T02:31:16.065Z,0.70
2022-10-10T02:33:48.862Z,1.20
2022-10-10T02:36:20.420Z,1.25
2022-10-10T02:38:49.542Z,1.30
2022-10-10T02:41:21.004Z,1.10
2022-10-10T02:43:50.810Z,1.10
2022-10-10T02:46:20.458Z,0.85
2022-10-10T02:48:48.473Z,0.90
2022-10-10T02:51:17.755Z,0.85
2022-10-10T02:53:47.423Z,1.20
2022-10-10T02:56:15.415Z,1.33
2022-10-10T02:58:43.453Z,1.05
2022-10-10T03:01:11.776Z,1.65
2022-10-10T03:03:41.108Z,1.30
2022-10-10T03:06:09.005Z,1.25
2022-10-10T03:08:38.538Z,1.05
2022-10-10T03:11:07.901Z,0.95
2022-10-10T03:13:35.951Z,1.27
2022-10-10T03:16:04.372Z,1.25
2022-10-10T03:18:32.270Z,0.70
2022-10-10T03:21:01.554Z,1.00
2022-10-10T03:23:29.454Z,1.00
2022-10-10T03:25:57.413Z,1.25
2022-10-10T03:28:25.521Z,0.85
2022-10-10T03:30:53.699Z,0.85
2022-10-10T03:33:21.894Z,1.30
2022-10-10T03:35:50.182Z,1.13
2022-10-10T03:38:19.481Z,1.10
2022-10-10T03:40:47.599Z,1.17
2022-10-10T03:43:16.009Z,1.20
2022-10-10T03:45:44.753Z,1.48
2022-10-10T03:48:13.239Z,1.63
2022-10-10T03:50:41.348Z,0.88
2022-10-10T03:53:09.344Z,1.23
2022-10-10T03:55:40.481Z,1.15
2022-10-10T03:58:08.405Z,1.58
2022-10-10T04:00:36.806Z,1.50
2022-10-10T04:03:06.387Z,1.02
2022-10-10T04:05:36.934Z,1.30
2022-10-10T04:08:05.208Z,0.93
2022-10-10T04:10:33.365Z,1.27
2022-10-10T04:13:02.760Z,1.00
2022-10-10T04:15:31.709Z,1.30
2022-10-10T04:17:59.882Z,0.90
2022-10-10T04:20:28.182Z,0.93
2022-10-10T04:22:56.237Z,1.60
2022-10-10T04:25:24.351Z,1.17
2022-10-10T04:27:53.069Z,1.20
2022-10-10T04:30:24.523Z,1.52
2022-10-10T04:32:52.803Z,1.27
2022-10-10T04:35:24.602Z,0.85
2022-10-10T04:37:53.447Z,0.93
2022-10-10T04:40:26.394Z,1.38
2022-10-10T04:42:54.971Z,1.20
2022-10-10T04:45:26.377Z,1.23
2022-10-10T04:47:54.575Z,1.17
2022-10-10T04:50:23.250Z,1.40
2022-10-10T04:52:51.902Z,1.23
2022-10-10T04:55:20.068Z,0.88
2022-10-10T04:57:48.041Z,1.58
2022-10-10T05:00:16.332Z,1.50
2022-10-10T05:02:45.634Z,1.30
2022-10-10T05:05:13.630Z,1.02
2022-10-10T05:07:43.657Z,1.13
2022-10-10T05:10:11.651Z,2.33
2022-10-10T05:12:39.567Z,1.15
2022-10-10T05:15:08.506Z,1.55
2022-10-10T05:17:36.480Z,1.43
2022-10-10T05:20:06.936Z,2.75
2022-10-10T05:22:35.605Z,1.25
2022-10-10T05:25:04.143Z,1.88
2022-10-10T05:27:32.301Z,2.42
2022-10-10T05:30:00.298Z,1.55
2022-10-10T05:32:28.239Z,1.70
2022-10-10T05:34:56.156Z,0.73
2022-10-10T05:37:25.552Z,2.83
2022-10-10T05:39:54.827Z,1.70
2022-10-10T05:42:23.246Z,1.95
2022-10-10T05:44:51.211Z,1.30
2022-10-10T05:47:19.343Z,1.17
2022-10-10T05:49:47.520Z,1.25
2022-10-10T05:52:15.530Z,1.15
2022-10-10T05:54:45.028Z,1.63
2022-10-10T05:57:16.329Z,1.77
2022-10-10T05:59:44.695Z,1.48
2022-10-10T06:02:13.670Z,1.63
2022-10-10T06:04:41.731Z,1.33
2022-10-10T06:07:09.953Z,1.52
2022-10-10T06:09:38.161Z,1.08
2022-10-10T06:12:07.588Z,1.27
2022-10-10T06:14:35.549Z,1.23
2022-10-10T06:17:04.541Z,1.77
2022-10-10T06:19:32.654Z,1.45
2022-10-10T06:22:00.638Z,1.80
2022-10-10T06:24:28.586Z,1.98
2022-10-10T06:26:56.605Z,2.22
2022-10-10T06:29:26.363Z,2.50
2022-10-10T06:34:22.373Z,2.13
2022-10-10T06:36:50.535Z,1.70
2022-10-10T06:39:18.595Z,2.10
2022-10-10T06:41:46.574Z,2.00
2022-10-10T06:44:17.834Z,1.80
2022-10-10T06:46:47.300Z,2.05
2022-10-10T06:49:15.332Z,2.00
2022-10-10T06:51:43.307Z,2.35
2022-10-10T06:54:12.045Z,1.92
2022-10-10T06:56:40.158Z,1.85
2022-10-10T06:59:08.186Z,2.05
2022-10-10T07:01:36.243Z,2.60
2022-10-10T07:04:05.818Z,2.17
2022-10-10T07:06:34.977Z,2.22
2022-10-10T07:09:03.332Z,2.85
2022-10-10T07:11:31.354Z,2.30
2022-10-10T07:13:59.475Z,1.85
2022-10-10T07:16:27.583Z,1.95
2022-10-10T07:18:55.979Z,1.92
2022-10-10T07:21:25.315Z,2.30
2022-10-10T07:23:53.357Z,1.88
2022-10-10T07:26:22.494Z,1.95
2022-10-10T07:28:50.930Z,1.70
2022-10-10T07:31:19.266Z,2.63
2022-10-10T07:33:50.434Z,1.85
2022-10-10T07:36:19.190Z,2.47
2022-10-10T07:38:52.747Z,2.05
2022-10-10T07:41:21.448Z,2.55
2022-10-10T07:43:54.265Z,2.03
2022-10-10T07:46:22.346Z,2.28
2022-10-10T07:48:50.298Z,2.85
2022-10-10T07:51:18.437Z,2.00
2022-10-10T07:53:46.492Z,1.88
2022-10-10T07:56:15.940Z,2.20
2022-10-10T07:58:43.940Z,3.40
2022-10-10T08:01:13.577Z,3.05
2022-10-10T08:03:41.858Z,2.40
2022-10-10T08:06:12.016Z,2.47
2022-10-10T08:08:49.939Z,2.55
2022-10-10T08:11:22.080Z,1.73
2022-10-10T08:13:51.189Z,1.60
2022-10-10T08:16:20.653Z,1.90
2022-10-10T08:18:48.609Z,2.15
2022-10-10T08:21:17.662Z,1.67
2022-10-10T08:23:45.949Z,2.60
2022-10-10T08:26:16.195Z,2.10
2022-10-10T08:28:45.954Z,2.05
2022-10-10T08:33:44.497Z,1.95
2022-10-10T08:36:15.423Z,2.42
2022-10-10T08:38:44.095Z,2.45
2022-10-10T08:41:19.488Z,2.47
2022-10-10T08:43:53.361Z,2.28
2022-10-10T08:46:33.182Z,2.70
2022-10-10T08:49:13.977Z,2.08
2022-10-10T08:51:47.615Z,2.42
2022-10-10T08:54:18.875Z,2.75
2022-10-10T08:56:48.516Z,2.92
2022-10-10T09:02:17.859Z,2.53
2022-10-10T09:04:42.396Z,3.00
2022-10-10T09:07:22.368Z,2.55
2022-10-10T09:10:00.283Z,2.55
2022-10-10T09:12:36.122Z,2.10
2022-10-10T09:15:15.282Z,2.80
2022-10-10T09:17:47.839Z,2.50
2022-10-10T09:20:33.503Z,2.30
2022-10-10T09:23:05.370Z,2.10
2022-10-10T09:25:39.012Z,2.10
2022-10-10T09:28:12.910Z,2.75
2022-10-10T09:30:57.759Z,2.28
2022-10-10T09:33:33.289Z,2.83
2022-10-10T09:36:06.351Z,2.58
2022-10-10T09:38:38.538Z,2.40
2022-10-10T09:41:13.271Z,3.28
2022-10-10T09:43:42.902Z,2.42
2022-10-10T09:48:41.981Z,2.63
2022-10-10T09:51:14.502Z,2.53
2022-10-10T09:53:42.971Z,2.72
2022-10-10T09:56:17.923Z,2.38
2022-10-10T09:58:47.426Z,2.47
2022-10-10T10:01:20.091Z,2.22
2022-10-10T10:04:23.278Z,2.17
2022-10-10T10:07:06.975Z,2.30
2022-10-10T10:09:35.441Z,2.30
2022-10-10T10:12:06.196Z,2.35
2022-10-10T10:14:38.914Z,3.58
2022-10-10T10:17:10.944Z,2.63
2022-10-10T10:19:40.987Z,1.92
2022-10-10T10:22:26.792Z,3.22
2022-10-10T10:24:55.545Z,2.10
2022-10-10T10:27:25.595Z,1.90
2022-10-10T10:29:55.595Z,2.20
2022-10-10T10:32:40.592Z,2.17
2022-10-10T10:35:25.501Z,1.75
2022-10-10T10:38:08.381Z,2.13
2022-10-10T10:40:41.307Z,1.77
2022-10-10T10:43:31.172Z,2.30
2022-10-10T10:46:09.106Z,1.70
2022-10-10T10:48:45.496Z,1.83
2022-10-10T10:51:33.919Z,1.48
2022-10-10T10:54:16.222Z,1.98
2022-10-10T10:56:52.220Z,1.48
2022-10-10T11:00:22.275Z,1.50
2022-10-10T11:02:55.480Z,2.10
2022-10-10T11:05:41.309Z,1.65
2022-10-10T11:08:24.979Z,1.63
2022-10-10T11:11:05.197Z,1.50
2022-10-10T11:13:43.200Z,1.33
2022-10-10T11:16:43.498Z,1.33
2022-10-10T11:19:19.107Z,1.23
2022-10-10T11:21:54.713Z,1.27
2022-10-10T11:24:34.700Z,1.58
2022-10-10T11:27:10.460Z,1.35
2022-10-10T11:29:51.965Z,1.25
2022-10-10T11:32:26.333Z,0.90
2022-10-10T11:35:06.714Z,1.70
2022-10-10T11:37:42.592Z,1.52
2022-10-10T11:40:26.711Z,1.40
2022-10-10T11:43:00.182Z,0.98
2022-10-10T11:45:33.330Z,1.17
2022-10-10T11:48:08.566Z,1.20
2022-10-10T11:50:41.647Z,1.05
2022-10-10T11:53:16.624Z,1.25
2022-10-10T11:55:52.102Z,1.40
2022-10-10T11:58:29.517Z,1.00
2022-10-10T12:01:01.916Z,1.10
2022-10-10T12:03:29.991Z,1.67
2022-10-10T12:06:04.596Z,1.55
2022-10-10T12:08:38.603Z,1.20
2022-10-10T12:11:17.856Z,1.17
2022-10-10T12:13:50.138Z,1.80
2022-10-10T12:16:22.744Z,1.17
2022-10-10T12:18:54.922Z,1.40
2022-10-10T12:21:25.906Z,1.08
2022-10-10T12:24:05.822Z,1.00
2022-10-10T12:27:13.449Z,1.48
2022-10-10T12:29:47.784Z,1.50
2022-10-10T12:32:29.127Z,1.20
2022-10-10T12:35:01.733Z,1.50
2022-10-10T12:37:31.162Z,1.00
2022-10-10T12:40:21.851Z,1.67
2022-10-10T12:43:23.182Z,1.38
2022-10-10T12:46:07.788Z,1.25
2022-10-10T12:48:36.676Z,1.38
2022-10-10T12:51:05.513Z,1.27
2022-10-10T12:53:35.422Z,1.65
2022-10-10T12:56:05.280Z,1.35
2022-10-10T12:58:38.366Z,1.05
2022-10-10T13:01:23.102Z,1.10
2022-10-10T13:03:53.855Z,2.00
2022-10-10T13:06:28.945Z,1.20
2022-10-10T13:08:57.569Z,1.30
2022-10-10T13:11:27.022Z,1.00
2022-10-10T13:16:29.944Z,1.15
2022-10-10T13:19:01.940Z,1.05
2022-10-10T13:21:32.497Z,1.63
2022-10-10T13:24:03.952Z,1.20
2022-10-10T13:26:36.379Z,1.67
2022-10-10T13:29:15.076Z,1.48
2022-10-10T13:31:44.262Z,1.38
2022-10-10T13:34:18.149Z,2.10
2022-10-10T13:36:46.983Z,1.63
2022-10-10T13:39:16.473Z,1.27
2022-10-10T13:41:47.090Z,1.27
2022-10-10T13:44:21.610Z,1.27
2022-10-10T13:46:49.624Z,1.83
2022-10-10T13:49:24.980Z,1.60
2022-10-10T13:52:03.909Z,1.30
2022-10-10T13:54:46.094Z,0.98
2022-10-10T13:57:22.851Z,2.15
2022-10-10T14:00:01.641Z,1.00
2022-10-10T14:02:37.910Z,1.08
2022-10-10T14:05:07.655Z,1.13
2022-10-10T14:07:36.607Z,1.13
2022-10-10T14:10:08.771Z,1.55
2022-10-10T14:12:42.654Z,1.20
2022-10-10T14:15:34.621Z,1.23
2022-10-10T14:18:02.907Z,1.50
2022-10-10T14:20:30.939Z,1.77
2022-10-10T14:23:01.429Z,1.58
2022-10-10T14:25:29.433Z,1.00
2022-10-10T14:27:58.923Z,1.23
2022-10-10T14:32:54.819Z,1.33
2022-10-10T14:35:22.836Z,1.38
2022-10-10T14:37:50.767Z,1.50
2022-10-10T14:40:20.787Z,1.45
2022-10-10T14:42:49.057Z,1.55
2022-10-10T14:45:18.526Z,1.10
2022-10-10T14:47:46.650Z,1.08
2022-10-10T14:50:20.967Z,1.00
2022-10-10T14:52:48.935Z,1.50
2022-10-10T14:55:17.310Z,0.95
2022-10-10T14:57:45.389Z,1.33
2022-10-10T15:00:16.834Z,1.52
2022-10-10T15:02:46.616Z,1.15
2022-10-10T15:05:16.100Z,2.10
2022-10-10T15:07:44.602Z,1.13
2022-10-10T15:13:03.419Z,1.63
2022-10-10T15:15:31.931Z,1.45
2022-10-10T15:18:01.847Z,1.63
2022-10-10T15:20:31.695Z,0.90
2022-10-10T15:23:00.543Z,1.42
2022-10-10T15:25:33.296Z,1.10
2022-10-10T15:28:02.172Z,1.30
2022-10-10T15:30:30.232Z,1.10
2022-10-10T15:32:58.172Z,1.77
2022-10-10T15:35:39.951Z,1.13
2022-10-10T15:38:16.211Z,1.10
2022-10-10T15:40:44.308Z,1.95
2022-10-10T15:43:12.204Z,1.73
2022-10-10T15:45:55.528Z,1.08
2022-10-10T15:48:24.341Z,1.35
2022-10-10T15:50:53.726Z,1.05
2022-10-10T15:53:21.859Z,1.40
2022-10-10T15:55:49.894Z,1.17
2022-10-10T15:58:17.886Z,0.93
2022-10-10T16:00:46.010Z,0.85
2022-10-10T16:03:14.183Z,1.10
2022-10-10T16:05:43.216Z,0.90
2022-10-10T16:08:13.030Z,1.33
2022-10-10T16:10:42.754Z,1.17
2022-10-10T16:13:11.152Z,1.10
2022-10-10T16:15:39.111Z,1.45
2022-10-10T16:18:07.070Z,1.60
2022-10-10T16:20:35.114Z,1.10
2022-10-10T16:23:03.044Z,1.50
2022-10-10T16:25:33.560Z,1.83
2022-10-10T16:28:01.556Z,1.45
2022-10-10T16:30:29.634Z,1.38
2022-10-10T16:32:59.066Z,1.42
2022-10-10T16:35:27.077Z,1.42
2022-10-10T16:37:55.056Z,1.30
2022-10-10T16:40:22.982Z,1.63
2022-10-10T16:42:52.442Z,1.70
2022-10-10T16:45:20.417Z,1.73
2022-10-10T16:47:48.586Z,1.60
2022-10-10T16:50:16.884Z,0.93
2022-10-10T16:52:45.791Z,1.30
2022-10-10T16:55:14.121Z,1.50
2022-10-10T16:57:42.095Z,1.25
2022-10-10T17:00:12.292Z,1.45
2022-10-10T17:02:42.188Z,1.27
2022-10-10T17:05:10.720Z,1.77
2022-10-10T17:07:38.752Z,1.45
2022-10-10T17:10:07.631Z,1.20
2022-10-10T17:12:35.702Z,1.90
2022-10-10T17:15:03.775Z,2.05
2022-10-10T17:17:33.039Z,1.42
2022-10-10T17:20:02.008Z,1.73
2022-10-10T17:22:30.259Z,2.15
2022-10-10T17:24:58.577Z,2.17
2022-10-10T17:27:26.615Z,1.77
2022-10-10T17:29:55.031Z,1.77
2022-10-10T17:32:23.082Z,1.55
2022-10-10T17:34:53.423Z,1.52
2022-10-10T17:37:21.424Z,2.65
2022-10-10T17:39:49.380Z,2.00
2022-10-10T17:42:17.585Z,2.00
2022-10-10T17:44:51.422Z,1.90
2022-10-10T17:47:21.715Z,3.05
2022-10-10T17:49:49.660Z,2.30
2022-10-10T17:52:21.401Z,2.05
2022-10-10T17:54:50.219Z,1.65
2022-10-10T17:57:18.541Z,1.70
2022-10-10T17:59:46.777Z,2.00
2022-10-10T18:02:16.578Z,1.90
2022-10-10T18:04:45.443Z,2.03
2022-10-10T18:07:13.659Z,1.85
2022-10-10T18:09:43.233Z,2.05
2022-10-10T18:14:40.107Z,2.40
2022-10-10T18:17:08.094Z,2.17
2022-10-10T18:19:36.509Z,2.25
2022-10-10T18:22:04.888Z,2.03
2022-10-10T18:24:33.079Z,2.30
2022-10-10T18:27:02.478Z,2.70
2022-10-10T18:29:30.444Z,1.95
2022-10-10T18:31:58.526Z,1.40
2022-10-10T18:34:26.770Z,1.90
2022-10-10T18:36:54.773Z,2.38
2022-10-10T18:39:22.767Z,2.40
2022-10-10T18:41:50.895Z,2.72
2022-10-10T18:44:20.417Z,2.00
2022-10-10T18:46:50.485Z,2.67
2022-10-10T18:49:18.850Z,3.08
2022-10-10T18:51:47.038Z,2.90
2022-10-10T18:54:17.795Z,2.95
2022-10-10T18:56:46.801Z,2.63
2022-10-10T18:59:17.263Z,1.73
2022-10-10T19:01:46.814Z,2.10
2022-10-10T19:06:44.531Z,2.10
2022-10-10T19:09:14.305Z,2.00
2022-10-10T19:11:44.624Z,2.45
2022-10-10T19:14:15.001Z,2.10
2022-10-10T19:16:44.159Z,2.00
2022-10-10T19:19:15.057Z,2.88
2022-10-10T19:21:45.406Z,2.88
2022-10-10T19:24:15.253Z,1.83
2022-10-10T19:26:44.682Z,2.00
2022-10-10T19:29:13.681Z,2.08
2022-10-10T19:31:42.162Z,2.00
2022-10-10T19:34:10.143Z,1.95
2022-10-10T19:36:41.411Z,2.15
2022-10-10T19:39:10.171Z,2.10
2022-10-10T19:41:38.215Z,2.40
2022-10-10T19:44:06.921Z,2.70
2022-10-10T19:46:37.378Z,2.53
2022-10-10T19:49:06.331Z,2.78
2022-10-10T19:51:34.531Z,2.65
2022-10-10T19:54:04.204Z,2.30
2022-10-10T19:59:04.238Z,3.08
2022-10-10T20:01:32.690Z,2.80
2022-10-10T20:04:01.032Z,2.30
2022-10-10T20:06:29.201Z,2.03
2022-10-10T20:08:57.305Z,2.13
2022-10-10T20:11:27.251Z,2.30
2022-10-10T20:13:55.738Z,2.53
2022-10-10T20:16:24.941Z,2.20
2022-10-10T20:18:53.827Z,3.17
2022-10-10T20:21:24.320Z,3.37
2022-10-10T20:23:52.704Z,3.17
2022-10-10T20:26:23.523Z,2.92
2022-10-10T20:28:53.507Z,2.58
2022-10-10T20:31:23.933Z,2.00
2022-10-10T20:33:53.622Z,2.35
2022-10-10T20:36:23.647Z,2.25
2022-10-10T20:38:55.375Z,2.63
2022-10-10T20:41:25.059Z,2.35
2022-10-10T20:43:58.938Z,2.40
2022-10-10T20:46:28.930Z,2.63
2022-10-10T20:48:57.590Z,2.10
2022-10-10T20:51:26.858Z,2.38
2022-10-10T20:53:57.346Z,2.15
2022-10-10T20:56:26.499Z,3.22
2022-10-10T20:58:54.591Z,2.17
2022-10-10T21:01:26.228Z,2.70
2022-10-10T21:03:54.478Z,2.13
2022-10-10T21:06:24.481Z,2.10
2022-10-10T21:08:53.239Z,2.15
2022-10-10T21:11:22.302Z,2.10
2022-10-10T21:13:54.034Z,2.55
2022-10-10T21:16:22.382Z,2.15
2022-10-10T21:18:57.677Z,1.63
2022-10-10T21:21:27.440Z,2.58
2022-10-10T21:23:56.731Z,2.53
2022-10-10T21:26:26.863Z,2.78
2022-10-10T21:28:55.872Z,2.50
2022-10-10T21:31:26.544Z,2.03
2022-10-10T21:33:56.052Z,2.38
2022-10-10T21:36:26.494Z,2.20
2022-10-10T21:38:54.520Z,2.80
2022-10-10T21:41:22.927Z,2.38
2022-10-10T21:43:54.545Z,2.55
2022-10-10T21:46:24.741Z,2.80
2022-10-10T21:48:53.251Z,2.08
2022-10-10T21:51:22.650Z,2.30
2022-10-10T21:53:51.002Z,2.70
2022-10-10T21:56:19.475Z,2.45
2022-10-10T21:58:47.543Z,3.15
2022-10-10T22:01:17.788Z,2.75
2022-10-10T22:03:47.661Z,1.77
2022-10-10T22:06:17.765Z,2.63
2022-10-10T22:08:48.271Z,2.40
2022-10-10T22:11:18.128Z,3.17
2022-10-10T22:13:46.086Z,2.42
2022-10-10T22:16:14.512Z,1.98
2022-10-10T22:18:43.810Z,2.15
2022-10-10T22:21:15.049Z,2.10
2022-10-10T22:23:43.535Z,2.28
2022-10-10T22:26:15.679Z,3.13
2022-10-10T22:28:44.000Z,2.17
2022-10-10T22:31:15.157Z,3.15
2022-10-10T22:33:43.568Z,2.55
2022-10-10T22:36:12.105Z,2.53
2022-10-10T22:38:41.752Z,2.78
2022-10-10T22:43:39.781Z,4.28
2022-10-10T22:46:08.702Z,3.05
2022-10-10T22:48:37.402Z,2.20
2022-10-10T22:51:07.627Z,3.63
2022-10-10T22:53:35.689Z,3.03
2022-10-10T22:56:04.539Z,2.80
2022-10-10T22:58:33.193Z,3.00
2022-10-10T23:01:05.922Z,3.30
2022-10-10T23:03:34.057Z,3.45
2022-10-10T23:06:02.865Z,2.53
2022-10-10T23:08:31.345Z,2.35
2022-10-10T23:11:00.073Z,2.38
2022-10-10T23:13:28.455Z,2.08
2022-10-10T23:15:56.355Z,2.10
2022-10-10T23:18:25.671Z,3.55
2022-10-10T23:20:53.635Z,2.95
2022-10-10T23:23:21.592Z,2.08
2022-10-10T23:25:49.685Z,2.92
2022-10-10T23:28:18.627Z,2.78
2022-10-10T23:30:48.160Z,3.47
2022-10-10T23:33:16.970Z,1.92
2022-10-10T23:35:57.458Z,2.35
2022-10-10T23:38:25.427Z,2.60
2022-10-10T23:40:53.418Z,3.00
2022-10-10T23:43:21.348Z,2.95
2022-10-10T23:45:49.435Z,2.45
2022-10-10T23:48:17.709Z,3.17
2022-10-10T23:50:46.996Z,3.35
2022-10-10T23:53:15.297Z,3.47
2022-10-10T23:55:43.361Z,3.60
2022-10-10T23:58:11.271Z,3.35
